createdAt,value
2022-08-08T00:01:06.570Z,73.56
2022-08-08T00:05:00.825Z,70.20
2022-08-08T00:08:36.768Z,68.91
2022-08-08T00:12:07.231Z,71.63
2022-08-08T00:15:56.549Z,68.85
2022-08-08T00:19:46.670Z,68.16
2022-08-08T00:23:17.136Z,73.90
2022-08-08T00:26:54.802Z,68.29
2022-08-08T00:30:23.963Z,67.58
2022-08-08T00:34:17.840Z,67.18
2022-08-08T00:38:01.892Z,66.41
2022-08-08T00:42:08.242Z,65.75
2022-08-08T00:45:50.803Z,67.88
2022-08-08T00:49:58.376Z,68.99
2022-08-08T00:54:04.647Z,65.72
2022-08-08T00:58:30.831Z,65.27
2022-08-08T01:03:57.950Z,63.15
2022-08-08T01:06:47.477Z,62.87
2022-08-08T01:10:45.816Z,64.03
2022-08-08T01:14:53.488Z,63.89
2022-08-08T01:18:52.884Z,63.54
2022-08-08T01:22:35.466Z,68.01
2022-08-08T01:26:36.845Z,66.08
2022-08-08T01:30:20.865Z,59.89
2022-08-08T01:34:00.430Z,60.11
2022-08-08T01:37:58.244Z,62.24
2022-08-08T01:41:34.486Z,61.35
2022-08-08T01:45:56.814Z,62.03
2022-08-08T01:49:37.823Z,59.36
2022-08-08T01:55:14.740Z,59.15
2022-08-08T01:57:24.797Z,59.69
2022-08-08T02:01:54.501Z,58.87
2022-08-08T02:05:55.796Z,61.90
2022-08-08T02:10:01.948Z,65.41
2022-08-08T02:13:53.212Z,64.21
2022-08-08T02:17:50.329Z,62.30
2022-08-08T02:21:44.497Z,64.67
2022-08-08T02:25:28.140Z,64.79
2022-08-08T02:29:18.795Z,62.77
2022-08-08T02:32:55.891Z,59.61
2022-08-08T02:36:54.753Z,60.87
2022-08-08T02:40:41.066Z,62.32
2022-08-08T02:44:39.318Z,63.21
2022-08-08T02:48:27.442Z,64.04
2022-08-08T02:52:32.669Z,64.16
2022-08-08T02:56:15.816Z,64.84
2022-08-08T03:00:15.909Z,63.62
2022-08-08T03:05:04.757Z,64.13
2022-08-08T03:08:30.857Z,64.00
2022-08-08T03:12:36.521Z,64.80
2022-08-08T03:16:35.323Z,64.83
2022-08-08T03:20:23.835Z,66.30
2022-08-08T03:24:00.112Z,67.87
2022-08-08T03:27:35.904Z,67.25
2022-08-08T03:31:07.834Z,68.75
2022-08-08T03:34:52.887Z,69.08
2022-08-08T03:38:57.202Z,69.26
2022-08-08T03:42:27.938Z,69.54
2022-08-08T03:46:03.188Z,68.96
2022-08-08T03:49:58.343Z,69.05
2022-08-08T03:53:42.288Z,70.26
2022-08-08T03:58:31.722Z,71.04
2022-08-08T04:01:20.882Z,72.01
2022-08-08T04:04:40.974Z,70.71
2022-08-08T04:08:06.856Z,71.11
2022-08-08T04:11:32.824Z,69.78
2022-08-08T04:15:11.904Z,69.99
2022-08-08T04:18:41.966Z,70.27
2022-08-08T04:22:13.698Z,71.44
2022-08-08T04:25:38.410Z,70.17
2022-08-08T04:29:03.840Z,70.80
2022-08-08T04:32:30.198Z,69.58
2022-08-08T04:35:51.621Z,70.25
2022-08-08T04:40:03.607Z,71.16
2022-08-08T04:43:01.910Z,70.55
2022-08-08T04:46:31.203Z,68.90
2022-08-08T04:50:01.126Z,69.08
2022-08-08T04:54:27.063Z,71.75
2022-08-08T04:57:14.961Z,70.58
2022-08-08T05:00:40.944Z,69.70
2022-08-08T05:04:07.698Z,70.89
2022-08-08T05:07:41.958Z,70.83
2022-08-08T05:11:06.879Z,70.99
2022-08-08T05:14:31.993Z,73.12
2022-08-08T05:17:56.952Z,72.20
2022-08-08T05:21:22.975Z,72.89
2022-08-08T05:24:48.255Z,73.18
2022-08-08T05:28:15.014Z,73.76
2022-08-08T05:32:03.444Z,74.24
2022-08-08T05:35:17.922Z,74.62
2022-08-08T05:38:52.898Z,74.32
2022-08-08T05:42:19.410Z,74.47
2022-08-08T05:45:53.272Z,74.91
2022-08-08T05:49:19.921Z,75.85
2022-08-08T05:52:44.887Z,75.87
2022-08-08T05:56:15.260Z,76.93
2022-08-08T06:00:00.533Z,76.37
2022-08-08T06:03:39.030Z,77.00
2022-08-08T06:07:08.898Z,76.75
2022-08-08T06:10:34.908Z,77.31
2022-08-08T06:14:03.979Z,78.52
2022-08-08T06:17:50.520Z,78.69
2022-08-08T06:21:28.601Z,79.35
2022-08-08T06:24:58.963Z,78.97
2022-08-08T06:28:33.996Z,79.56
2022-08-08T06:32:09.943Z,80.10
2022-08-08T06:36:07.522Z,80.38
2022-08-08T06:39:23.946Z,82.73
2022-08-08T06:42:49.969Z,82.94
2022-08-08T06:46:24.045Z,82.55
2022-08-08T06:49:55.442Z,83.04
2022-08-08T06:53:20.461Z,83.20
2022-08-08T06:56:51.282Z,82.52
2022-08-08T07:00:29.863Z,83.69
2022-08-08T07:04:39.841Z,83.20
2022-08-08T07:08:08.776Z,83.50
2022-08-08T07:11:46.257Z,83.98
2022-08-08T07:15:32.136Z,83.90
2022-08-08T07:19:17.029Z,84.06
2022-08-08T07:23:01.945Z,85.32
2022-08-08T07:26:32.669Z,85.50
2022-08-08T07:30:05.974Z,84.65
2022-08-08T07:33:53.349Z,85.75
2022-08-08T07:37:23.012Z,84.51
2022-08-08T07:40:47.253Z,85.16
2022-08-08T07:44:37.262Z,84.23
2022-08-08T07:48:00.937Z,84.22
2022-08-08T07:51:45.129Z,84.45
2022-08-08T07:55:39.943Z,84.69
2022-08-08T07:59:06.978Z,84.45
2022-08-08T08:02:38.736Z,85.18
2022-08-08T08:06:05.039Z,85.10
2022-08-08T08:09:35.946Z,84.58
2022-08-08T08:13:43.068Z,84.55
2022-08-08T08:17:12.065Z,85.11
2022-08-08T08:20:45.009Z,85.23
2022-08-08T08:24:10.657Z,86.06
2022-08-08T08:27:36.003Z,86.07
2022-08-08T08:30:53.617Z,86.96
2022-08-08T08:34:13.988Z,87.13
2022-08-08T08:37:59.399Z,87.16
2022-08-08T08:41:26.994Z,86.77
2022-08-08T08:44:55.970Z,86.74
2022-08-08T08:48:21.031Z,87.33
2022-08-08T08:51:51.587Z,87.50
2022-08-08T08:55:16.123Z,87.02
2022-08-08T08:58:50.987Z,87.30
2022-08-08T09:02:20.110Z,87.41
2022-08-08T09:05:54.211Z,88.32
2022-08-08T09:09:35.184Z,89.10
2022-08-08T09:13:11.017Z,89.10
2022-08-08T09:16:35.055Z,88.79
2022-08-08T09:21:56.001Z,89.06
2022-08-08T09:23:48.009Z,89.23
2022-08-08T09:27:20.794Z,89.39
2022-08-08T09:30:47.033Z,89.98
2022-08-08T09:34:32.845Z,89.51
2022-08-08T09:38:17.857Z,90.13
2022-08-08T09:42:21.178Z,90.46
2022-08-08T09:46:16.942Z,90.76
2022-08-08T09:49:55.059Z,90.74
2022-08-08T09:53:56.438Z,90.51
2022-08-08T09:57:23.450Z,90.32
2022-08-08T10:00:57.136Z,90.53
2022-08-08T10:04:41.304Z,90.73
2022-08-08T10:08:09.922Z,89.76
2022-08-08T10:12:26.859Z,90.68
2022-08-08T10:15:25.103Z,90.06
2022-08-08T10:18:55.290Z,90.57
2022-08-08T10:22:23.096Z,90.75
2022-08-08T10:25:57.051Z,91.07
2022-08-08T10:29:28.180Z,90.51
2022-08-08T10:32:54.985Z,91.11
2022-08-08T10:36:22.489Z,91.05
2022-08-08T10:39:54.809Z,91.43
2022-08-08T10:43:22.850Z,91.85
2022-08-08T10:46:48.490Z,91.00
2022-08-08T10:50:23.538Z,90.86
2022-08-08T10:53:57.995Z,89.66
2022-08-08T10:57:41.342Z,88.90
2022-08-08T11:01:10.708Z,89.43
2022-08-08T11:04:38.906Z,88.94
2022-08-08T11:08:37.733Z,89.86
2022-08-08T11:12:06.347Z,89.06
2022-08-08T11:15:54.811Z,88.41
2022-08-08T11:19:24.007Z,88.47
2022-08-08T11:22:48.049Z,88.63
2022-08-08T11:26:12.065Z,88.21
2022-08-08T11:29:58.375Z,88.30
2022-08-08T11:33:51.474Z,88.19
2022-08-08T11:37:14.700Z,88.05
2022-08-08T11:40:40.116Z,88.37
2022-08-08T11:44:05.176Z,88.38
2022-08-08T11:47:39.917Z,87.20
2022-08-08T11:51:38.504Z,87.19
2022-08-08T11:55:00.039Z,87.46
2022-08-08T11:58:26.070Z,86.96
2022-08-08T12:01:51.063Z,87.40
2022-08-08T12:05:22.448Z,87.40
2022-08-08T12:08:50.112Z,87.80
2022-08-08T12:12:16.911Z,87.53
2022-08-08T12:15:57.081Z,87.19
2022-08-08T12:19:37.670Z,87.74
2022-08-08T12:23:24.990Z,87.86
2022-08-08T12:27:00.088Z,87.77
2022-08-08T12:30:27.107Z,88.79
2022-08-08T12:34:02.661Z,89.46
2022-08-08T12:37:44.162Z,89.29
2022-08-08T12:41:35.217Z,88.99
2022-08-08T12:45:58.244Z,88.47
2022-08-08T12:49:22.266Z,88.92
2022-08-08T12:52:50.141Z,88.66
2022-08-08T12:56:26.062Z,88.05
2022-08-08T13:00:04.379Z,88.82
2022-08-08T13:03:51.760Z,89.32
2022-08-08T13:08:03.899Z,88.83
2022-08-08T13:11:11.090Z,89.73
2022-08-08T13:14:35.096Z,89.47
2022-08-08T13:18:11.181Z,89.48
2022-08-08T13:21:53.802Z,89.76
2022-08-08T13:25:35.090Z,90.26
2022-08-08T13:29:00.098Z,91.02
2022-08-08T13:32:25.346Z,91.31
2022-08-08T13:35:54.064Z,90.59
2022-08-08T13:39:18.139Z,91.46
2022-08-08T13:42:44.101Z,91.60
2022-08-08T13:46:08.103Z,91.40
2022-08-08T13:50:34.830Z,91.34
2022-08-08T13:53:53.226Z,91.01
2022-08-08T13:58:03.487Z,90.81
2022-08-08T14:01:09.116Z,91.03
2022-08-08T14:04:38.196Z,90.92
2022-08-08T14:08:29.669Z,91.31
2022-08-08T14:11:55.101Z,92.03
2022-08-08T14:15:20.125Z,91.92
2022-08-08T14:18:51.944Z,92.52
2022-08-08T14:22:29.783Z,92.19
2022-08-08T14:26:10.314Z,92.14
2022-08-08T14:29:39.423Z,92.00
2022-08-08T14:33:15.241Z,92.82
2022-08-08T14:36:54.693Z,92.07
2022-08-08T14:40:19.163Z,91.90
2022-08-08T14:44:09.782Z,92.29
2022-08-08T14:47:36.275Z,93.13
2022-08-08T14:51:02.130Z,92.59
2022-08-08T14:54:29.417Z,92.53
2022-08-08T14:58:03.287Z,92.73
2022-08-08T15:01:40.521Z,92.76
2022-08-08T15:05:08.017Z,93.15
2022-08-08T15:08:38.530Z,93.52
2022-08-08T15:12:22.299Z,93.39
2022-08-08T15:16:02.638Z,93.31
2022-08-08T15:19:28.858Z,93.85
2022-08-08T15:22:55.126Z,94.21
2022-08-08T15:26:19.151Z,94.25
2022-08-08T15:29:44.208Z,94.46
2022-08-08T15:33:11.149Z,93.53
2022-08-08T15:36:45.144Z,93.82
2022-08-08T15:40:11.212Z,93.16
2022-08-08T15:43:39.137Z,93.21
2022-08-08T15:47:05.141Z,93.24
2022-08-08T15:50:30.136Z,92.34
2022-08-08T15:53:54.154Z,92.78
2022-08-08T15:57:21.189Z,93.36
2022-08-08T16:00:47.153Z,93.64
2022-08-08T16:04:15.103Z,92.58
2022-08-08T16:07:53.033Z,92.45
2022-08-08T16:13:04.198Z,92.80
2022-08-08T16:15:02.112Z,92.55
2022-08-08T16:18:26.144Z,92.37
2022-08-08T16:21:54.071Z,92.91
2022-08-08T16:25:20.203Z,92.44
2022-08-08T16:28:44.170Z,91.61
2022-08-08T16:32:13.074Z,90.52
2022-08-08T16:35:49.551Z,90.11
2022-08-08T16:39:27.750Z,90.46
2022-08-08T16:42:58.119Z,90.00
2022-08-08T16:46:39.246Z,89.60
2022-08-08T16:50:08.665Z,89.70
2022-08-08T16:55:23.146Z,89.36
2022-08-08T16:57:23.534Z,89.22
2022-08-08T17:01:09.191Z,89.52
2022-08-08T17:04:35.181Z,89.89
2022-08-08T17:08:00.207Z,89.77
2022-08-08T17:11:28.445Z,89.71
2022-08-08T17:15:20.097Z,89.38
2022-08-08T17:18:46.154Z,89.30
2022-08-08T17:22:12.442Z,89.72
2022-08-08T17:25:47.710Z,88.96
2022-08-08T17:29:24.839Z,89.13
2022-08-08T17:34:34.974Z,89.00
2022-08-08T17:36:36.465Z,88.85
2022-08-08T17:40:05.925Z,89.56
2022-08-08T17:44:01.130Z,89.10
2022-08-08T17:47:23.188Z,89.19
2022-08-08T17:50:41.233Z,88.43
2022-08-08T17:54:09.155Z,88.48
2022-08-08T17:57:38.537Z,88.78
2022-08-08T18:01:03.193Z,89.53
2022-08-08T18:04:31.160Z,88.81
2022-08-08T18:08:02.573Z,89.38
2022-08-08T18:11:30.238Z,89.52
2022-08-08T18:15:01.224Z,90.36
2022-08-08T18:18:29.222Z,90.36
2022-08-08T18:22:00.971Z,89.79
2022-08-08T18:25:25.177Z,89.37
2022-08-08T18:28:54.342Z,89.45
2022-08-08T18:32:21.220Z,89.32
2022-08-08T18:35:48.746Z,90.05
2022-08-08T18:39:27.882Z,89.70
2022-08-08T18:42:54.277Z,90.42
2022-08-08T18:46:54.104Z,90.57
2022-08-08T18:50:03.336Z,90.30
2022-08-08T18:54:00.329Z,91.45
2022-08-08T18:57:16.225Z,90.95
2022-08-08T19:00:40.183Z,90.99
2022-08-08T19:04:12.841Z,90.23
2022-08-08T19:07:37.534Z,90.18
2022-08-08T19:11:02.417Z,90.16
2022-08-08T19:14:26.241Z,90.20
2022-08-08T19:18:30.866Z,90.56
2022-08-08T19:21:49.570Z,91.45
2022-08-08T19:26:01.701Z,90.46
2022-08-08T19:28:59.271Z,90.54
2022-08-08T19:32:23.280Z,91.08
2022-08-08T19:36:08.259Z,90.16
2022-08-08T19:39:35.248Z,90.84
2022-08-08T19:43:11.776Z,90.06
2022-08-08T19:46:37.178Z,89.27
2022-08-08T19:50:02.450Z,88.99
2022-08-08T19:53:50.983Z,89.69
2022-08-08T19:56:58.214Z,89.13
2022-08-08T20:00:30.293Z,88.96
2022-08-08T20:04:01.789Z,89.74
2022-08-08T20:08:28.279Z,90.11
2022-08-08T20:11:11.284Z,89.54
2022-08-08T20:14:36.033Z,89.18
2022-08-08T20:18:15.493Z,89.12
2022-08-08T20:21:40.245Z,88.47
2022-08-08T20:25:05.220Z,87.10
2022-08-08T20:28:33.065Z,86.88
2022-08-08T20:32:09.970Z,86.27
2022-08-08T20:35:58.271Z,87.51
2022-08-08T20:39:22.263Z,87.71
2022-08-08T20:42:47.226Z,86.74
2022-08-08T20:46:20.222Z,83.29
2022-08-08T20:49:46.817Z,84.52
2022-08-08T20:53:16.333Z,84.02
2022-08-08T20:57:16.581Z,84.41
2022-08-08T21:00:31.258Z,84.00
2022-08-08T21:04:01.694Z,84.12
2022-08-08T21:07:47.607Z,83.79
2022-08-08T21:11:11.287Z,83.60
2022-08-08T21:14:36.218Z,84.64
2022-08-08T21:18:01.236Z,84.36
2022-08-08T21:21:40.294Z,83.40
2022-08-08T21:25:10.519Z,83.91
2022-08-08T21:28:38.447Z,82.05
2022-08-08T21:32:02.252Z,80.87
2022-08-08T21:36:16.065Z,79.12
2022-08-08T21:39:14.713Z,79.00
2022-08-08T21:42:40.275Z,77.34
2022-08-08T21:48:08.146Z,76.02
2022-08-08T21:49:47.257Z,75.52
2022-08-08T21:54:34.462Z,75.48
2022-08-08T21:56:57.285Z,75.92
2022-08-08T22:00:26.105Z,77.43
2022-08-08T22:03:51.217Z,77.42
2022-08-08T22:07:10.634Z,77.98
2022-08-08T22:10:35.257Z,73.06
2022-08-08T22:14:00.280Z,71.93
2022-08-08T22:17:26.328Z,71.18
2022-08-08T22:20:51.305Z,69.88
2022-08-08T22:24:17.285Z,70.88
2022-08-08T22:28:04.465Z,69.95
2022-08-08T22:31:31.298Z,69.17
2022-08-08T22:35:00.316Z,68.89
2022-08-08T22:38:29.297Z,68.06
2022-08-08T22:41:54.305Z,67.63
2022-08-08T22:45:22.255Z,68.58
2022-08-08T22:48:46.265Z,67.91
2022-08-08T22:52:10.277Z,68.94
2022-08-08T22:55:58.588Z,66.58
2022-08-08T22:59:12.283Z,67.01
2022-08-08T23:02:42.321Z,67.61
2022-08-08T23:06:14.349Z,67.24
2022-08-08T23:09:55.279Z,66.44
2022-08-08T23:13:23.320Z,67.44
2022-08-08T23:17:02.312Z,67.09
2022-08-08T23:20:27.615Z,66.66
2022-08-08T23:23:56.152Z,65.37
2022-08-08T23:27:39.258Z,66.67
2022-08-08T23:31:04.271Z,65.92
2022-08-08T23:34:29.464Z,65.95
2022-08-08T23:38:01.821Z,66.02
2022-08-08T23:41:28.964Z,64.90
2022-08-08T23:44:54.290Z,65.04
2022-08-08T23:49:05.467Z,65.53
2022-08-08T23:52:08.191Z,63.78
2022-08-08T23:55:38.375Z,62.51
2022-08-08T23:59:17.010Z,64.76
